Time;durP1;ratioP1;P1;durP2;ratioP2;P2;SDS_P1;SDS_P2;PMS_P1;PMS_P2;Temp;Humidity;BMP_temperature;BMP_pressure;BME280_temperature;BME280_humidity;BME280_pressure;Samples;Min_cycle;Max_cycle;Signal;HPM_P1;HPM_P2
2021/06/26 00:00:22;;;;;;;3.13;2.83;;;25.10;48.20;;;;;;5029291;28;20034;-57
2021/06/26 00:02:48;;;;;;;3.38;2.90;;;25.10;48.20;;;;;;5017983;28;20084;-56
2021/06/26 00:05:14;;;;;;;4.03;3.17;;;25.10;48.30;;;;;;5022038;28;20432;-55
2021/06/26 00:07:40;;;;;;;2.80;2.53;;;25.00;48.30;;;;;;5018756;28;20030;-56
2021/06/26 00:10:08;;;;;;;3.08;2.78;;;25.10;48.40;;;;;;5015871;28;20049;-54
2021/06/26 00:12:34;;;;;;;3.67;3.03;;;25.00;48.30;;;;;;5018649;28;20473;-55
2021/06/26 00:14:59;;;;;;;3.28;2.58;;;25.10;48.40;;;;;;5021230;28;20044;-52
2021/06/26 00:17:26;;;;;;;3.50;3.20;;;25.10;48.40;;;;;;5025516;28;20022;-53
2021/06/26 00:19:52;;;;;;;3.50;3.20;;;25.00;48.40;;;;;;5027506;28;20037;-55
2021/06/26 00:22:18;;;;;;;3.17;2.88;;;25.00;48.40;;;;;;5023969;28;20049;-51
2021/06/26 00:24:44;;;;;;;3.40;3.10;;;25.00;48.40;;;;;;5020283;28;20067;-54
2021/06/26 00:27:09;;;;;;;3.28;2.97;;;25.00;48.40;;;;;;5025547;28;20025;-50
2021/06/26 00:29:35;;;;;;;3.30;3.00;;;25.00;48.40;;;;;;5015226;28;20518;-51
2021/06/26 00:32:01;;;;;;;2.83;2.58;;;25.00;48.40;;;;;;5016472;28;20121;-55
2021/06/26 00:34:28;;;;;;;2.72;2.53;;;25.00;48.40;;;;;;5024225;28;20018;-55
2021/06/26 00:36:54;;;;;;;3.50;3.20;;;25.00;48.40;;;;;;5022101;28;20025;-53
2021/06/26 00:39:20;;;;;;;2.50;2.30;;;25.00;48.40;;;;;;5025331;28;20040;-56
2021/06/26 00:41:45;;;;;;;2.72;2.53;;;25.00;48.40;;;;;;5022266;28;20048;-54
2021/06/26 00:44:11;;;;;;;3.53;2.83;;;25.00;48.40;;;;;;5020345;28;20115;-57
2021/06/26 00:46:37;;;;;;;3.15;2.85;;;25.00;48.30;;;;;;5026648;28;20037;-56
2021/06/26 00:49:04;;;;;;;3.05;2.78;;;25.00;48.40;;;;;;5029599;28;20029;-57
2021/06/26 00:51:30;;;;;;;3.47;3.17;;;24.90;48.30;;;;;;5028258;28;20040;-53
2021/06/26 00:53:58;;;;;;;3.97;3.40;;;25.00;48.40;;;;;;5029900;28;20481;-56
2021/06/26 00:56:25;;;;;;;3.30;3.00;;;25.00;48.40;;;;;;5019414;28;20366;-58
2021/06/26 00:58:52;;;;;;;2.95;2.58;;;25.00;48.40;;;;;;5032135;28;20022;-56
2021/06/26 01:01:20;;;;;;;3.47;3.13;;;25.00;48.40;;;;;;5015607;28;20109;-55
2021/06/26 01:03:46;;;;;;;3.15;2.78;;;24.90;48.30;;;;;;5028195;28;20045;-57
2021/06/26 01:06:14;;;;;;;3.47;3.03;;;24.90;48.30;;;;;;5023164;28;20033;-56
2021/06/26 01:08:41;;;;;;;3.13;2.83;;;24.90;48.30;;;;;;5021945;28;20461;-58
2021/06/26 01:11:07;;;;;;;2.80;2.60;;;24.90;48.30;;;;;;5025025;28;20129;-56
2021/06/26 01:13:33;;;;;;;3.22;2.92;;;24.90;48.30;;;;;;5020727;28;20056;-53
2021/06/26 01:15:59;;;;;;;2.90;2.60;;;24.90;48.90;;;;;;5028133;28;20030;-55
2021/06/26 01:18:25;;;;;;;3.78;3.40;;;24.90;48.30;;;;;;5022584;28;20087;-54
2021/06/26 01:20:51;;;;;;;3.10;2.80;;;24.90;48.20;;;;;;5016357;28;20022;-55
2021/06/26 01:23:18;;;;;;;4.00;2.60;;;24.90;48.20;;;;;;5031214;28;20402;-56
2021/06/26 01:25:44;;;;;;;3.10;2.80;;;24.80;48.20;;;;;;5017090;28;20065;-57
2021/06/26 01:28:12;;;;;;;2.90;2.70;;;24.90;48.20;;;;;;5016828;28;20058;-57
2021/06/26 01:30:38;;;;;;;2.85;2.63;;;24.80;48.20;;;;;;5022944;28;20037;-55
2021/06/26 01:33:04;;;;;;;3.55;2.70;;;24.80;48.10;;;;;;5018712;28;20041;-57
2021/06/26 01:35:31;;;;;;;3.30;3.00;;;24.80;48.10;;;;;;5021705;28;20033;-56
2021/06/26 01:37:58;;;;;;;2.60;2.40;;;24.80;48.10;;;;;;5024081;28;20144;-55
2021/06/26 01:40:26;;;;;;;3.20;2.90;;;24.80;48.10;;;;;;5025978;28;20033;-53
2021/06/26 01:42:53;;;;;;;2.85;2.60;;;24.80;48.10;;;;;;5015949;28;20038;-55
2021/06/26 01:45:20;;;;;;;2.65;2.45;;;24.80;48.10;;;;;;5026269;28;20065;-56
2021/06/26 01:47:49;;;;;;;3.05;2.75;;;24.80;48.10;;;;;;5023322;28;20334;-56
2021/06/26 01:50:17;;;;;;;3.40;3.10;;;24.80;48.00;;;;;;5021424;28;20064;-54
2021/06/26 01:52:47;;;;;;;3.45;2.83;;;24.80;48.00;;;;;;5026821;28;20037;-58
2021/06/26 01:55:14;;;;;;;3.08;2.85;;;24.80;48.00;;;;;;5028025;28;20029;-56
2021/06/26 01:57:42;;;;;;;3.17;2.88;;;24.80;48.00;;;;;;5029199;28;20021;-57
2021/06/26 02:00:08;;;;;;;3.42;3.03;;;24.80;48.00;;;;;;5022328;28;20038;-55
2021/06/26 02:02:38;;;;;;;2.70;2.45;;;24.80;48.00;;;;;;5018126;28;20459;-54
2021/06/26 02:05:06;;;;;;;3.10;2.72;;;24.80;48.00;;;;;;5014210;28;20032;-55
2021/06/26 02:07:32;;;;;;;2.83;2.47;;;24.80;48.00;;;;;;5020320;28;20108;-56
2021/06/26 02:10:01;;;;;;;3.08;2.75;;;24.80;48.00;;;;;;5028859;28;20158;-55
2021/06/26 02:12:27;;;;;;;2.70;2.50;;;24.80;48.00;;;;;;5014988;28;20074;-58
2021/06/26 02:14:54;;;;;;;3.92;3.20;;;24.70;47.90;;;;;;5017026;28;20081;-58
2021/06/26 02:17:23;;;;;;;2.90;2.63;;;24.70;48.00;;;;;;5034011;28;20065;-54
2021/06/26 02:19:50;;;;;;;2.92;2.50;;;24.70;48.00;;;;;;5025556;28;20087;-55
2021/06/26 02:22:17;;;;;;;3.55;2.90;;;24.70;48.00;;;;;;5031161;28;20091;-56
2021/06/26 02:24:43;;;;;;;3.10;2.80;;;24.70;48.00;;;;;;5019051;28;20022;-54
2021/06/26 02:27:09;;;;;;;2.88;2.63;;;24.70;48.00;;;;;;5032389;28;20142;-55
2021/06/26 02:29:36;;;;;;;3.00;2.63;;;24.70;48.10;;;;;;5033877;28;20404;-59
2021/06/26 02:32:04;;;;;;;3.17;2.88;;;24.70;48.10;;;;;;5015671;28;20095;-56
2021/06/26 02:34:30;;;;;;;3.13;2.88;;;24.70;48.10;;;;;;5033762;28;20108;-57
2021/06/26 02:36:56;;;;;;;3.00;2.53;;;24.70;48.10;;;;;;5021818;28;20105;-54
2021/06/26 02:39:22;;;;;;;2.83;2.63;;;24.70;48.10;;;;;;5019839;28;20088;-56
2021/06/26 02:41:47;;;;;;;3.00;2.80;;;24.70;48.10;;;;;;5034028;28;20504;-57
2021/06/26 02:44:13;;;;;;;3.50;2.90;;;24.70;48.20;;;;;;5020966;28;20034;-54
2021/06/26 02:46:39;;;;;;;3.00;2.70;;;24.60;48.10;;;;;;5027384;28;20033;-56
2021/06/26 02:49:05;;;;;;;3.28;2.97;;;24.70;48.10;;;;;;5025251;28;20065;-55
2021/06/26 02:51:31;;;;;;;2.60;2.40;;;24.60;48.10;;;;;;5025592;28;20029;-56
2021/06/26 02:53:57;;;;;;;3.38;3.08;;;24.70;48.10;;;;;;5031763;28;20093;-56
2021/06/26 02:56:23;;;;;;;2.95;2.65;;;24.60;48.00;;;;;;5022649;28;20029;-54
2021/06/26 02:58:49;;;;;;;3.72;2.90;;;24.70;48.10;;;;;;5026417;28;20449;-57
2021/06/26 03:01:15;;;;;;;3.22;2.92;;;24.60;48.10;;;;;;5035671;28;20461;-54
2021/06/26 03:03:40;;;;;;;3.17;2.88;;;24.60;48.00;;;;;;5037188;28;20029;-57
2021/06/26 03:06:06;;;;;;;3.08;2.78;;;24.60;48.00;;;;;;5019923;28;20434;-55
2021/06/26 03:08:32;;;;;;;2.67;2.38;;;24.60;48.00;;;;;;5027534;28;20349;-55
2021/06/26 03:10:58;;;;;;;3.03;2.72;;;24.60;48.00;;;;;;5029121;28;20089;-57
2021/06/26 03:13:24;;;;;;;2.83;2.53;;;24.60;48.00;;;;;;5008242;28;20049;-56
2021/06/26 03:15:50;;;;;;;3.00;2.75;;;24.60;48.00;;;;;;5037098;28;20505;-58
2021/06/26 03:18:16;;;;;;;2.97;2.72;;;24.60;48.00;;;;;;5032225;28;20030;-56
2021/06/26 03:20:42;;;;;;;3.33;2.85;;;24.60;47.90;;;;;;5019030;28;20099;-58
2021/06/26 03:23:08;;;;;;;2.85;2.63;;;24.60;48.00;;;;;;5021284;28;20041;-55
2021/06/26 03:25:34;;;;;;;3.17;2.88;;;24.60;48.00;;;;;;5025702;28;20040;-56
2021/06/26 03:28:00;;;;;;;3.33;3.03;;;24.60;48.00;;;;;;5028671;28;20037;-54
2021/06/26 03:30:26;;;;;;;2.80;2.60;;;24.60;48.10;;;;;;5017115;28;20041;-54
2021/06/26 03:32:52;;;;;;;3.20;2.90;;;24.60;48.10;;;;;;5035846;28;20039;-58
2021/06/26 03:35:17;;;;;;;3.30;3.00;;;24.60;48.10;;;;;;5036692;28;20026;-57
2021/06/26 03:37:44;;;;;;;3.45;3.15;;;24.60;48.10;;;;;;5017733;28;20044;-55
2021/06/26 03:40:10;;;;;;;2.90;2.65;;;24.60;48.10;;;;;;5020741;28;20026;-56
2021/06/26 03:42:37;;;;;;;3.03;2.72;;;24.60;48.10;;;;;;5029219;28;20056;-58
2021/06/26 03:45:05;;;;;;;2.95;2.65;;;24.60;48.20;;;;;;5035132;28;20112;-55
2021/06/26 03:47:31;;;;;;;3.17;2.85;;;24.60;48.20;;;;;;5021006;28;20057;-57
2021/06/26 03:49:57;;;;;;;3.20;2.88;;;24.60;48.20;;;;;;5026169;28;20441;-58
2021/06/26 03:52:22;;;;;;;3.40;2.90;;;24.60;48.20;;;;;;5018503;28;20151;-52
2021/06/26 03:54:49;;;;;;;3.08;2.78;;;24.60;48.20;;;;;;5021812;28;20029;-56
2021/06/26 03:57:15;;;;;;;3.25;2.60;;;24.60;48.20;;;;;;5036143;28;20168;-55
2021/06/26 03:59:41;;;;;;;2.63;2.42;;;24.60;48.20;;;;;;5019435;28;20042;-55
2021/06/26 04:02:07;;;;;;;2.97;2.67;;;24.60;48.20;;;;;;5015141;28;20040;-55
2021/06/26 04:04:37;;;;;;;2.88;2.55;;;24.60;48.20;;;;;;5029435;28;20429;-53
2021/06/26 04:07:04;;;;;;;3.08;2.78;;;24.60;48.20;;;;;;5034755;28;20395;-54
2021/06/26 04:09:30;;;;;;;2.70;2.50;;;24.60;48.20;;;;;;5031826;28;20121;-50
2021/06/26 04:11:56;;;;;;;3.17;2.88;;;24.60;48.20;;;;;;5035430;28;20124;-55
2021/06/26 04:14:22;;;;;;;2.92;2.50;;;24.60;48.30;;;;;;5023902;28;20041;-55
2021/06/26 04:16:48;;;;;;;3.00;2.60;;;24.60;48.40;;;;;;5016215;28;20036;-55
2021/06/26 04:19:14;;;;;;;2.80;2.60;;;24.60;48.40;;;;;;5021395;28;20033;-56
2021/06/26 04:21:41;;;;;;;3.05;2.78;;;24.60;48.50;;;;;;5031595;28;20124;-54
2021/06/26 04:24:07;;;;;;;3.42;3.13;;;24.60;48.50;;;;;;5026035;28;20038;-55
2021/06/26 04:26:33;;;;;;;2.83;2.55;;;24.60;48.60;;;;;;5020908;28;20280;-53
2021/06/26 04:28:59;;;;;;;2.70;2.50;;;24.60;48.60;;;;;;5025408;28;20040;-57
2021/06/26 04:31:25;;;;;;;3.20;2.90;;;24.60;48.60;;;;;;5031923;28;20112;-57
2021/06/26 04:33:51;;;;;;;3.10;2.80;;;24.60;48.60;;;;;;5035386;28;20065;-57
2021/06/26 04:36:18;;;;;;;3.08;2.80;;;24.60;48.60;;;;;;5024100;28;20025;-52
2021/06/26 04:38:44;;;;;;;2.85;2.55;;;24.60;48.70;;;;;;5020293;28;20038;-56
2021/06/26 04:41:11;;;;;;;3.00;2.75;;;24.60;48.60;;;;;;5031664;28;20116;-56
2021/06/26 04:43:37;;;;;;;3.08;2.78;;;24.60;48.70;;;;;;5035101;28;20033;-58
2021/06/26 04:46:07;;;;;;;2.95;2.45;;;24.60;48.70;;;;;;5033356;28;20045;-56
2021/06/26 04:48:34;;;;;;;2.85;2.65;;;24.60;48.70;;;;;;5031334;28;20029;-54
2021/06/26 04:51:00;;;;;;;2.97;2.67;;;24.60;48.80;;;;;;5031047;28;20171;-56
2021/06/26 04:53:25;;;;;;;2.85;2.65;;;24.60;48.80;;;;;;5035161;28;20180;-54
2021/06/26 04:55:51;;;;;;;3.10;2.80;;;24.60;48.80;;;;;;5026312;28;20112;-55
2021/06/26 04:58:21;;;;;;;2.88;2.60;;;24.60;48.80;;;;;;5023919;28;20048;-53
2021/06/26 05:00:51;;;;;;;2.85;2.65;;;24.60;48.80;;;;;;5005049;28;20061;-57
2021/06/26 05:03:21;;;;;;;3.00;2.70;;;24.60;48.90;;;;;;5027133;28;20457;-56
2021/06/26 05:05:49;;;;;;;3.00;2.47;;;24.60;48.90;;;;;;5030561;28;20037;-55
2021/06/26 05:08:15;;;;;;;3.05;2.75;;;24.60;49.00;;;;;;5016128;28;20116;-53
2021/06/26 05:10:41;;;;;;;3.17;2.83;;;24.60;49.00;;;;;;5015098;28;20030;-55
2021/06/26 05:13:07;;;;;;;3.00;2.70;;;24.60;49.00;;;;;;5015539;28;20072;-58
2021/06/26 05:15:34;;;;;;;3.08;2.60;;;24.60;49.10;;;;;;5034853;28;20071;-55
2021/06/26 05:17:59;;;;;;;3.13;2.83;;;24.60;49.10;;;;;;5023159;28;20025;-54
2021/06/26 05:20:26;;;;;;;2.97;2.67;;;24.60;49.10;;;;;;5018250;28;20412;-57
2021/06/26 05:22:52;;;;;;;2.70;2.50;;;24.60;49.20;;;;;;5031766;28;20349;-56
2021/06/26 05:25:18;;;;;;;2.80;2.60;;;24.60;49.20;;;;;;5014372;28;20025;-55
2021/06/26 05:27:44;;;;;;;2.97;2.67;;;24.60;49.20;;;;;;5014974;28;20034;-56
2021/06/26 05:30:11;;;;;;;3.22;2.92;;;24.60;49.20;;;;;;5033699;28;20052;-58
2021/06/26 05:32:36;;;;;;;3.25;2.95;;;24.60;49.20;;;;;;5033521;28;20038;-56
2021/06/26 05:35:03;;;;;;;3.25;2.65;;;24.60;49.30;;;;;;5015017;28;20022;-53
2021/06/26 05:37:29;;;;;;;2.90;2.70;;;24.60;49.30;;;;;;5012846;28;20330;-54
2021/06/26 05:39:54;;;;;;;2.78;2.55;;;24.60;49.30;;;;;;5021055;28;20167;-57
2021/06/26 05:42:20;;;;;;;3.30;3.00;;;24.60;49.30;;;;;;5027921;28;20056;-53
2021/06/26 05:44:46;;;;;;;3.47;3.17;;;24.60;49.40;;;;;;5032866;28;20421;-55
2021/06/26 05:47:12;;;;;;;2.67;2.35;;;24.60;49.40;;;;;;5032936;28;20038;-55
2021/06/26 05:49:38;;;;;;;3.05;2.80;;;24.60;49.40;;;;;;5019797;28;20042;-52
2021/06/26 05:52:04;;;;;;;3.25;2.85;;;24.60;49.40;;;;;;5015517;28;20026;-58
2021/06/26 05:54:30;;;;;;;2.90;2.70;;;24.60;49.40;;;;;;5022387;28;20433;-56
2021/06/26 05:56:57;;;;;;;2.70;2.50;;;24.60;49.50;;;;;;5017894;28;20384;-54
2021/06/26 05:59:23;;;;;;;3.40;3.10;;;24.60;49.50;;;;;;5021811;28;20030;-57
2021/06/26 06:01:49;;;;;;;2.90;2.60;;;24.60;49.50;;;;;;5014319;28;20180;-56
2021/06/26 06:04:15;;;;;;;3.30;2.63;;;24.60;49.50;;;;;;5024387;28;20488;-54
2021/06/26 06:06:41;;;;;;;3.35;3.00;;;24.60;49.50;;;;;;5033874;28;20342;-56
2021/06/26 06:09:07;;;;;;;3.95;3.13;;;24.60;49.50;;;;;;5032321;28;20038;-56
2021/06/26 06:11:34;;;;;;;3.70;3.25;;;24.60;49.50;;;;;;5023606;28;20040;-58
2021/06/26 06:14:01;;;;;;;3.08;2.78;;;24.60;49.50;;;;;;5007127;28;20027;-57
2021/06/26 06:16:27;;;;;;;3.05;2.75;;;24.60;49.50;;;;;;4994492;28;20035;-57
2021/06/26 06:18:53;;;;;;;3.20;2.90;;;24.60;49.50;;;;;;5009988;28;20461;-55
2021/06/26 06:21:19;;;;;;;3.53;3.22;;;24.60;49.50;;;;;;5018307;28;20048;-56
2021/06/26 06:23:45;;;;;;;3.60;3.30;;;24.60;49.50;;;;;;5019005;28;20030;-53
2021/06/26 06:26:11;;;;;;;3.83;3.42;;;24.60;49.60;;;;;;5027983;28;20031;-51
2021/06/26 06:28:38;;;;;;;3.45;3.08;;;24.70;49.70;;;;;;5021702;28;20044;-55
2021/06/26 06:31:04;;;;;;;3.25;2.85;;;24.70;49.60;;;;;;5032390;28;20042;-53
2021/06/26 06:33:30;;;;;;;3.63;3.33;;;24.70;49.60;;;;;;5024154;28;20034;-52
2021/06/26 06:35:56;;;;;;;3.63;3.33;;;24.70;49.70;;;;;;5018043;28;20047;-53
2021/06/26 06:38:22;;;;;;;3.20;2.90;;;24.70;49.70;;;;;;5017930;28;20118;-51
2021/06/26 06:40:48;;;;;;;3.63;3.33;;;24.70;49.70;;;;;;5014084;28;20080;-57
2021/06/26 06:43:13;;;;;;;3.25;2.95;;;24.70;49.70;;;;;;5029209;28;20057;-54
2021/06/26 06:45:39;;;;;;;3.88;3.47;;;24.70;49.80;;;;;;4999062;28;20036;-56
2021/06/26 06:48:05;;;;;;;3.40;3.10;;;24.70;49.80;;;;;;5017568;28;20034;-52
2021/06/26 06:50:32;;;;;;;3.63;3.33;;;24.70;49.80;;;;;;5016757;28;20088;-55
2021/06/26 06:53:01;;;;;;;4.03;3.25;;;24.70;49.80;;;;;;5020958;28;20029;-56
2021/06/26 06:55:28;;;;;;;3.38;3.08;;;24.80;49.90;;;;;;5033584;28;20025;-58
2021/06/26 06:57:54;;;;;;;3.35;3.05;;;24.80;49.90;;;;;;5018934;28;20361;-53
2021/06/26 07:00:20;;;;;;;3.17;2.88;;;24.80;49.90;;;;;;4999419;28;20092;-53
2021/06/26 07:02:46;;;;;;;3.92;2.80;;;24.80;49.90;;;;;;5016344;28;20026;-51
2021/06/26 07:05:12;;;;;;;3.38;3.08;;;24.80;49.90;;;;;;5011475;28;20029;-52
2021/06/26 07:07:38;;;;;;;3.30;3.00;;;24.90;50.00;;;;;;5028568;28;20327;-55
2021/06/26 07:10:05;;;;;;;3.15;2.88;;;24.90;50.00;;;;;;5009952;28;20510;-56
2021/06/26 07:12:31;;;;;;;4.03;2.90;;;25.00;50.00;;;;;;4996751;28;20335;-57
2021/06/26 07:14:57;;;;;;;3.75;2.88;;;25.00;49.90;;;;;;5008789;28;20061;-58
2021/06/26 07:17:22;;;;;;;3.10;2.80;;;25.00;49.80;;;;;;5019689;28;20334;-57
2021/06/26 07:19:48;;;;;;;2.95;2.65;;;25.00;49.70;;;;;;5024243;28;20353;-56
2021/06/26 07:22:14;;;;;;;3.22;2.92;;;25.10;49.70;;;;;;5021278;28;20056;-56
2021/06/26 07:24:40;;;;;;;2.92;2.67;;;25.10;49.70;;;;;;5018015;28;20433;-50
2021/06/26 07:27:06;;;;;;;3.40;3.10;;;25.10;49.60;;;;;;5016037;28;20400;-58
2021/06/26 07:29:32;;;;;;;3.63;2.88;;;25.10;49.50;;;;;;5015351;28;20042;-54
2021/06/26 07:31:58;;;;;;;3.65;2.88;;;25.20;49.50;;;;;;5017073;28;20049;-55
2021/06/26 07:34:24;;;;;;;4.03;3.15;;;25.20;49.50;;;;;;5014135;28;20036;-55
2021/06/26 07:36:49;;;;;;;3.15;2.85;;;25.20;49.40;;;;;;4998430;28;20026;-54
2021/06/26 07:39:15;;;;;;;3.20;2.90;;;25.20;49.30;;;;;;5016694;28;20076;-56
2021/06/26 07:41:41;;;;;;;3.38;3.08;;;25.30;49.30;;;;;;5015515;28;20030;-55
2021/06/26 07:44:07;;;;;;;3.35;3.03;;;25.30;49.30;;;;;;5015433;28;20121;-56
2021/06/26 07:46:33;;;;;;;3.28;2.97;;;25.30;49.20;;;;;;5032171;28;20107;-55
2021/06/26 07:48:59;;;;;;;3.22;2.92;;;25.30;49.20;;;;;;5007996;28;20355;-58
2021/06/26 07:51:25;;;;;;;3.25;2.95;;;25.40;49.20;;;;;;4997382;28;20092;-58
2021/06/26 07:53:50;;;;;;;2.78;2.50;;;25.40;49.10;;;;;;5017692;28;20040;-57
2021/06/26 07:56:16;;;;;;;3.42;3.13;;;25.40;49.10;;;;;;5015702;28;20025;-57
2021/06/26 07:58:42;;;;;;;3.25;2.85;;;25.50;49.10;;;;;;5025509;28;20037;-57
2021/06/26 08:01:08;;;;;;;3.50;3.20;;;25.40;49.70;;;;;;5034911;28;20029;-54
2021/06/26 08:03:34;;;;;;;3.50;3.20;;;25.50;49.00;;;;;;5035025;28;20037;-56
2021/06/26 08:05:59;;;;;;;3.42;3.10;;;25.50;48.90;;;;;;5035149;28;20360;-57
2021/06/26 08:08:25;;;;;;;3.92;3.22;;;25.50;48.80;;;;;;5028979;28;20022;-59
2021/06/26 08:10:51;;;;;;;2.97;2.67;;;25.60;48.80;;;;;;5022409;28;20046;-57
2021/06/26 08:13:17;;;;;;;3.20;2.90;;;25.60;48.80;;;;;;5023741;28;20111;-54
2021/06/26 08:15:44;;;;;;;3.17;2.88;;;25.60;48.80;;;;;;5014407;28;20087;-56
2021/06/26 08:18:11;;;;;;;3.20;2.90;;;25.60;48.80;;;;;;5019922;28;20057;-58
2021/06/26 08:20:38;;;;;;;3.40;2.90;;;25.60;48.70;;;;;;5018619;28;20169;-55
2021/06/26 08:23:04;;;;;;;3.08;2.78;;;25.70;48.70;;;;;;5025573;28;20365;-52
2021/06/26 08:25:30;;;;;;;3.58;3.25;;;25.70;48.60;;;;;;5019369;28;20136;-56
2021/06/26 08:27:56;;;;;;;3.10;2.70;;;25.70;48.50;;;;;;5023172;28;20116;-53
2021/06/26 08:30:22;;;;;;;3.80;3.08;;;25.70;48.50;;;;;;5025511;28;20172;-53
2021/06/26 08:32:49;;;;;;;3.30;2.80;;;25.70;48.40;;;;;;5027291;28;20036;-58
2021/06/26 08:35:15;;;;;;;3.05;2.75;;;25.70;48.40;;;;;;5015228;28;20112;-54
2021/06/26 08:37:47;;;;;;;3.25;2.95;;;25.70;48.30;;;;;;5015030;28;20426;-57
2021/06/26 08:40:14;;;;;;;3.22;2.92;;;25.80;48.30;;;;;;5014958;28;20473;-56
2021/06/26 08:42:41;;;;;;;3.65;2.83;;;25.80;48.30;;;;;;5016834;28;20107;-56
2021/06/26 08:45:11;;;;;;;2.95;2.65;;;25.80;48.30;;;;;;5014480;28;20541;-53
2021/06/26 08:47:37;;;;;;;3.40;3.10;;;25.80;48.20;;;;;;5021192;28;20082;-50
2021/06/26 08:50:05;;;;;;;3.42;2.95;;;25.80;48.20;;;;;;5032016;28;20088;-53
2021/06/26 08:52:32;;;;;;;3.50;3.20;;;25.80;48.40;;;;;;5024705;28;20453;-56
2021/06/26 08:54:58;;;;;;;3.70;3.40;;;25.80;48.10;;;;;;5016865;28;20037;-55
2021/06/26 08:57:32;;;;;;;3.42;3.13;;;25.80;48.00;;;;;;5021402;28;20021;-51
2021/06/26 08:59:58;;;;;;;3.60;3.30;;;25.80;48.00;;;;;;5026700;28;20057;-53
2021/06/26 09:02:26;;;;;;;3.50;3.20;;;25.80;48.00;;;;;;5024303;28;20065;-60
2021/06/26 09:04:52;;;;;;;3.17;2.88;;;25.90;48.00;;;;;;5025409;28;20033;-55
2021/06/26 09:07:39;;;;;;;4.15;3.30;;;25.90;48.00;;;;;;5019841;28;20087;-55
2021/06/26 09:10:12;;;;;;;3.53;3.17;;;25.90;48.00;;;;;;5018171;28;20052;-56
2021/06/26 09:12:39;;;;;;;3.53;3.23;;;25.90;48.00;;;;;;5026954;28;20049;-55
2021/06/26 09:15:07;;;;;;;3.80;3.40;;;25.90;47.90;;;;;;5022645;28;20038;-56
2021/06/26 09:17:34;;;;;;;3.90;3.50;;;25.90;47.90;;;;;;5025921;28;20025;-55
2021/06/26 09:20:06;;;;;;;3.28;2.92;;;25.90;47.80;;;;;;5014901;28;20029;-56
2021/06/26 09:22:50;;;;;;;3.40;3.10;;;26.00;47.80;;;;;;5027105;28;20041;-58
2021/06/26 09:25:29;;;;;;;3.60;3.25;;;26.00;47.60;;;;;;5027860;28;20026;-57
2021/06/26 09:27:56;;;;;;;3.30;3.00;;;26.00;47.60;;;;;;5019124;28;20044;-57
2021/06/26 09:30:39;;;;;;;3.42;2.75;;;26.00;47.60;;;;;;5020976;28;20523;-57
2021/06/26 09:33:20;;;;;;;3.17;2.88;;;26.00;47.50;;;;;;5022502;28;20449;-54
2021/06/26 09:36:08;;;;;;;3.10;2.80;;;26.00;47.50;;;;;;5013619;28;20038;-51
2021/06/26 09:38:36;;;;;;;3.08;2.60;;;26.00;47.50;;;;;;5023524;28;20099;-56
2021/06/26 09:41:17;;;;;;;3.40;3.10;;;26.00;47.40;;;;;;5017725;28;20049;-54
2021/06/26 09:43:42;;;;;;;2.72;2.53;;;26.00;47.30;;;;;;5018726;28;20318;-57
2021/06/26 09:46:16;;;;;;;3.20;2.90;;;26.00;47.30;;;;;;5009693;28;20083;-58
2021/06/26 09:48:59;;;;;;;3.58;2.88;;;26.00;47.20;;;;;;5009634;28;20025;-58
2021/06/26 09:51:28;;;;;;;3.38;3.08;;;26.00;47.10;;;;;;5019823;28;20046;-57
2021/06/26 09:53:56;;;;;;;3.72;3.35;;;26.10;47.30;;;;;;5021290;28;20034;-55
2021/06/26 09:56:23;;;;;;;3.08;2.80;;;26.10;47.30;;;;;;5012938;28;20041;-51
2021/06/26 09:58:53;;;;;;;3.17;2.88;;;26.10;47.30;;;;;;5012728;28;20091;-53
2021/06/26 10:01:20;;;;;;;3.90;3.50;;;26.10;47.30;;;;;;5013639;28;20102;-53
2021/06/26 10:03:48;;;;;;;3.40;3.10;;;26.10;47.20;;;;;;5010913;28;20160;-53
2021/06/26 10:06:16;;;;;;;3.40;3.10;;;26.10;47.10;;;;;;5031935;28;20037;-49
2021/06/26 10:08:44;;;;;;;3.63;3.30;;;26.10;47.10;;;;;;5024599;28;20120;-53
2021/06/26 10:11:10;;;;;;;3.35;3.05;;;26.20;47.10;;;;;;4993886;28;20185;-51
2021/06/26 10:13:36;;;;;;;3.78;3.30;;;26.20;47.10;;;;;;4998750;28;20111;-49
2021/06/26 10:16:03;;;;;;;3.88;3.45;;;26.20;47.00;;;;;;5018314;28;20112;-51
2021/06/26 10:18:30;;;;;;;3.95;3.60;;;26.20;47.00;;;;;;5019617;28;20034;-52
2021/06/26 10:20:57;;;;;;;4.25;3.85;;;26.20;46.90;;;;;;5012581;28;20033;-52
2021/06/26 10:23:23;;;;;;;4.20;3.65;;;26.20;46.90;;;;;;5012847;28;20038;-52
2021/06/26 10:25:49;;;;;;;4.30;3.90;;;26.30;46.90;;;;;;5012524;28;20088;-46
2021/06/26 10:28:19;;;;;;;4.65;3.80;;;26.30;46.90;;;;;;5031145;28;20408;-51
2021/06/26 10:31:06;;;;;;;4.13;3.72;;;26.20;46.80;;;;;;5018271;28;20361;-51
2021/06/26 10:33:32;;;;;;;4.15;3.72;;;26.30;46.80;;;;;;5013309;28;20540;-51
2021/06/26 10:36:00;;;;;;;4.03;3.63;;;26.30;46.80;;;;;;5012449;28;20037;-50
2021/06/26 10:38:27;;;;;;;4.40;3.78;;;26.30;47.40;;;;;;5028448;28;20029;-54
2021/06/26 10:40:55;;;;;;;4.40;4.00;;;26.30;46.80;;;;;;5017384;28;20061;-55
2021/06/26 10:43:31;;;;;;;4.63;3.72;;;26.30;46.70;;;;;;5011215;28;20113;-53
2021/06/26 10:46:15;;;;;;;4.03;3.67;;;26.40;47.30;;;;;;4999538;28;20049;-50
2021/06/26 10:48:53;;;;;;;3.88;3.47;;;26.40;46.60;;;;;;5011111;28;20525;-52
2021/06/26 10:51:32;;;;;;;3.92;3.63;;;26.40;46.60;;;;;;5009921;28;20522;-51
2021/06/26 10:54:11;;;;;;;4.47;3.67;;;26.40;46.40;;;;;;5011563;28;20045;-50
2021/06/26 10:56:39;;;;;;;4.20;3.80;;;26.40;46.40;;;;;;5020044;28;20125;-53
2021/06/26 10:59:16;;;;;;;4.47;4.03;;;26.40;46.40;;;;;;5009822;28;20029;-49
2021/06/26 11:01:59;;;;;;;3.95;3.65;;;26.40;46.30;;;;;;5003609;28;20034;-51
2021/06/26 11:04:26;;;;;;;3.63;3.33;;;26.50;46.20;;;;;;5010123;28;20056;-48
2021/06/26 11:07:10;;;;;;;4.18;3.78;;;26.50;46.20;;;;;;4998763;28;20042;-56
2021/06/26 11:09:38;;;;;;;4.20;3.80;;;26.50;46.10;;;;;;5013315;28;20037;-50
2021/06/26 11:12:12;;;;;;;4.45;3.95;;;26.50;46.10;;;;;;4997866;28;20078;-54
2021/06/26 11:14:54;;;;;;;4.38;3.97;;;26.50;46.10;;;;;;5016292;28;20372;-51
2021/06/26 11:17:33;;;;;;;4.30;3.90;;;26.60;46.00;;;;;;5016142;28;20041;-50
2021/06/26 11:19:59;;;;;;;4.20;3.80;;;26.50;45.90;;;;;;5012279;28;20412;-51
2021/06/26 11:22:25;;;;;;;4.43;3.97;;;26.60;45.90;;;;;;5015756;28;20022;-56
2021/06/26 11:24:50;;;;;;;5.18;4.68;;;26.60;45.80;;;;;;5024066;28;20430;-51
2021/06/26 11:27:21;;;;;;;4.32;3.92;;;26.60;45.70;;;;;;5007604;28;20026;-52
2021/06/26 11:29:48;;;;;;;5.10;3.70;;;26.60;45.60;;;;;;5010393;28;20513;-51
2021/06/26 11:32:20;;;;;;;4.32;3.92;;;26.70;45.60;;;;;;5005553;28;20327;-55
2021/06/26 11:35:03;;;;;;;3.97;3.58;;;26.70;45.50;;;;;;5024419;28;20040;-58
2021/06/26 11:37:39;;;;;;;4.83;4.30;;;26.70;45.40;;;;;;5015349;28;20033;-53
2021/06/26 11:40:16;;;;;;;7.55;4.28;;;26.70;45.40;;;;;;5013882;28;20296;-48
2021/06/26 11:42:56;;;;;;;7.18;4.00;;;26.80;45.50;;;;;;5017153;28;20057;-48
2021/06/26 11:45:27;;;;;;;4.95;3.83;;;26.80;45.40;;;;;;5015748;28;20048;-52
2021/06/26 11:48:17;;;;;;;4.18;3.78;;;26.80;45.40;;;;;;5011985;28;20030;-54
2021/06/26 11:50:53;;;;;;;4.40;4.00;;;26.80;45.20;;;;;;5023988;28;20045;-55
2021/06/26 11:53:24;;;;;;;6.40;3.97;;;26.80;45.20;;;;;;5035467;28;20365;-46
2021/06/26 11:56:04;;;;;;;3.67;3.38;;;26.90;45.20;;;;;;5020052;28;20026;-51
2021/06/26 11:58:47;;;;;;;3.92;3.55;;;26.90;45.10;;;;;;5000874;28;20029;-49
2021/06/26 12:01:38;;;;;;;3.60;3.30;;;26.90;45.00;;;;;;5012720;28;20037;-49
2021/06/26 12:04:04;;;;;;;4.50;3.92;;;26.90;44.90;;;;;;5015103;28;20417;-52
2021/06/26 12:06:34;;;;;;;4.38;3.97;;;26.90;44.90;;;;;;5015236;28;20125;-54
2021/06/26 12:09:00;;;;;;;3.95;3.55;;;26.90;44.80;;;;;;5014867;28;20052;-52
2021/06/26 12:11:30;;;;;;;3.60;3.30;;;27.00;44.70;;;;;;5028960;28;20041;-51
2021/06/26 12:13:58;;;;;;;4.22;3.83;;;26.90;44.50;;;;;;5027123;28;20056;-51
2021/06/26 12:16:26;;;;;;;3.85;3.55;;;27.00;44.50;;;;;;5014883;28;20030;-48
2021/06/26 12:18:56;;;;;;;4.35;3.78;;;27.00;44.50;;;;;;5011489;28;20034;-50
2021/06/26 12:21:38;;;;;;;4.32;3.92;;;27.00;44.50;;;;;;4995394;28;20030;-54
2021/06/26 12:24:05;;;;;;;4.28;3.88;;;27.00;44.40;;;;;;4993716;28;20113;-52
2021/06/26 12:26:30;;;;;;;5.63;4.80;;;27.00;44.30;;;;;;5015875;28;20034;-48
2021/06/26 12:28:56;;;;;;;4.47;4.07;;;27.00;44.30;;;;;;5012800;28;20048;-49
2021/06/26 12:31:23;;;;;;;4.40;4.00;;;27.00;44.20;;;;;;5000744;28;20500;-53
2021/06/26 12:34:04;;;;;;;4.18;3.85;;;27.00;44.20;;;;;;5009839;28;20018;-53
2021/06/26 12:36:30;;;;;;;3.65;3.35;;;27.00;44.10;;;;;;5012138;28;20418;-50
2021/06/26 12:38:55;;;;;;;4.30;3.90;;;27.00;44.20;;;;;;5013996;28;20140;-49
2021/06/26 12:41:23;;;;;;;4.35;3.95;;;27.00;44.30;;;;;;5013830;28;20030;-55
2021/06/26 12:43:49;;;;;;;3.67;3.38;;;27.00;44.30;;;;;;5014551;28;20038;-51
2021/06/26 12:46:16;;;;;;;4.20;3.80;;;27.00;44.50;;;;;;5004918;28;20060;-49
2021/06/26 12:48:53;;;;;;;3.58;3.28;;;27.00;44.60;;;;;;5011773;28;20105;-50
2021/06/26 12:51:30;;;;;;;3.97;3.65;;;27.00;44.70;;;;;;5013255;28;20045;-54